Time;durP1;ratioP1;P1;durP2;ratioP2;P2;SDS_P1;SDS_P2;PMS_P1;PMS_P2;Temp;Humidity;BMP_temperature;BMP_pressure;BME280_temperature;BME280_humidity;BME280_pressure;Samples;Min_cycle;Max_cycle;Signal;HPM_P1;HPM_P2
2022/11/15 00:00:55;;;;;;;175.65;27.48;;;;;;;6.53;100.00;98441.25;4488213;32;20453;-80
2022/11/15 00:03:25;;;;;;;195.73;27.13;;;;;;;6.61;100.00;98438.53;4487768;32;20245;-79
2022/11/15 00:05:52;;;;;;;116.65;26.05;;;;;;;6.58;100.00;98433.47;4488047;31;20431;-80
2022/11/15 00:08:19;;;;;;;175.87;25.40;;;;;;;6.68;100.00;98435.78;4487864;32;20149;-80
2022/11/15 00:10:56;;;;;;;135.65;25.37;;;;;;;6.48;100.00;98431.94;4487658;32;20103;-80
2022/11/15 00:13:24;;;;;;;84.78;23.70;;;;;;;6.60;100.00;98429.16;4474082;32;20109;-80
2022/11/15 00:15:51;;;;;;;48.50;19.50;;;;;;;6.47;100.00;98427.69;4487895;31;20476;-80
2022/11/15 00:18:18;;;;;;;53.30;20.88;;;;;;;6.81;100.00;98433.84;4487889;32;20133;-80
2022/11/15 00:20:45;;;;;;;54.63;21.20;;;;;;;6.59;100.00;98432.56;4487856;32;20453;-80
2022/11/15 00:23:12;;;;;;;58.95;21.62;;;;;;;6.44;100.00;98425.22;4487935;32;20503;-80
2022/11/15 00:25:39;;;;;;;98.60;23.77;;;;;;;6.40;100.00;98426.16;4487974;31;20107;-80
2022/11/15 00:28:06;;;;;;;112.90;24.73;;;;;;;6.13;100.00;98418.13;4473910;32;20442;-80
2022/11/15 00:30:34;;;;;;;;;;;;;;;5.91;100.00;98420.25;4488001;32;20350;-80
2022/11/15 00:33:03;;;;;;;141.30;26.55;;;;;;;6.04;100.00;98414.00;4488271;32;19984;-80
2022/11/15 00:35:34;;;;;;;57.60;22.25;;;;;;;6.19;100.00;98417.16;4487571;31;20088;-80
2022/11/15 00:38:01;;;;;;;47.97;19.40;;;;;;;6.14;100.00;98408.72;4487726;32;20149;-80
2022/11/15 00:40:28;;;;;;;47.20;20.23;;;;;;;6.32;100.00;98411.78;4487776;32;20084;-80
2022/11/15 00:42:55;;;;;;;41.60;18.37;;;;;;;6.70;100.00;98419.53;4487999;32;20092;-80
2022/11/15 00:45:23;;;;;;;40.75;18.10;;;;;;;6.52;100.00;98416.50;4487416;32;20096;-81
2022/11/15 00:47:50;;;;;;;48.17;19.92;;;;;;;6.71;100.00;98411.84;4473829;32;20145;-80
2022/11/15 00:50:17;;;;;;;40.63;16.73;;;;;;;6.40;100.00;98403.94;4487589;32;20157;-80
2022/11/15 00:52:45;;;;;;;46.13;20.15;;;;;;;6.57;100.00;98406.13;4487636;32;20136;-80
2022/11/15 00:55:18;;;;;;;50.10;19.90;;;;;;;6.44;100.00;98403.00;4487587;31;20114;-80
2022/11/15 00:57:46;;;;;;;46.85;20.73;;;;;;;6.50;100.00;98410.56;4487963;32;20077;-80
2022/11/15 01:00:13;;;;;;;53.28;20.77;;;;;;;6.43;100.00;98411.56;4487391;32;20110;-80
2022/11/15 01:02:40;;;;;;;47.22;20.52;;;;;;;6.36;100.00;98395.44;4473772;32;20092;-80
2022/11/15 01:05:07;;;;;;;;;;;;;;;6.34;100.00;98394.63;4487730;32;20429;-79
2022/11/15 01:07:34;;;;;;;49.30;20.48;;;;;;;6.50;100.00;98390.06;4487650;32;19968;-80
2022/11/15 01:10:01;;;;;;;82.47;23.80;;;;;;;6.23;100.00;98383.75;4487643;32;20084;-80
2022/11/15 01:12:28;;;;;;;145.30;26.27;;;;;;;6.28;100.00;98388.81;4487441;32;20100;-79
2022/11/15 01:14:55;;;;;;;266.92;26.90;;;;;;;6.28;100.00;98383.69;4487585;31;20088;-80
2022/11/15 01:17:22;;;;;;;303.45;32.10;;;;;;;6.15;100.00;98380.50;4487665;32;20088;-80
2022/11/15 01:19:49;;;;;;;279.33;28.75;;;;;;;6.45;100.00;98380.75;4487251;32;20079;-80
2022/11/15 01:22:16;;;;;;;260.00;30.90;;;;;;;6.32;100.00;98372.50;4487618;32;20096;-80
2022/11/15 01:24:43;;;;;;;287.58;31.23;;;;;;;6.16;100.00;98376.22;4460545;32;20100;-80
2022/11/15 01:27:10;;;;;;;180.50;26.65;;;;;;;6.28;100.00;98373.44;4487270;32;20131;-80
2022/11/15 01:29:37;;;;;;;;;;;;;;;5.79;100.00;98362.37;4487762;32;20075;-79
2022/11/15 01:32:04;;;;;;;279.87;32.50;;;;;;;5.71;100.00;98356.53;4487666;32;19980;-80
2022/11/15 01:34:30;;;;;;;378.20;36.00;;;;;;;5.35;100.00;98355.50;4487183;31;20104;-80
2022/11/15 01:36:57;;;;;;;282.70;34.60;;;;;;;5.85;100.00;98358.88;4473498;32;20141;-80
2022/11/15 01:39:24;;;;;;;;;;;;;;;5.10;100.00;98355.03;4487788;32;20077;-80
2022/11/15 01:41:51;;;;;;;296.55;32.95;;;;;;;5.27;100.00;98343.69;4487315;32;19972;-80
2022/11/15 01:44:41;;;;;;;406.92;39.42;;;;;;;5.36;100.00;98356.34;4487444;32;20088;-80
2022/11/15 01:47:20;;;;;;;363.62;38.28;;;;;;;5.68;100.00;98358.31;4487058;32;20145;-79
2022/11/15 01:49:57;;;;;;;351.45;38.17;;;;;;;5.45;100.00;98364.69;4487024;32;20595;-80
2022/11/15 01:52:25;;;;;;;352.83;37.78;;;;;;;4.94;100.00;98356.16;4487559;32;20149;-80
2022/11/15 01:54:57;;;;;;;268.27;32.28;;;;;;;5.51;100.00;98358.62;4472764;32;20496;-80
2022/11/15 01:57:24;;;;;;;422.70;41.83;;;;;;;5.16;100.00;98349.00;4487372;32;20080;-80
2022/11/15 01:59:51;;;;;;;468.30;43.35;;;;;;;5.23;100.00;98348.88;4487284;32;20099;-80
2022/11/15 02:02:18;;;;;;;480.73;46.30;;;;;;;5.87;100.00;98363.97;4487058;32;20088;-80
2022/11/15 02:04:46;;;;;;;504.05;44.28;;;;;;;5.87;100.00;98354.56;4487335;31;20088;-80
2022/11/15 02:07:16;;;;;;;440.10;40.92;;;;;;;5.76;100.00;98359.03;4487047;32;20442;-80
2022/11/15 02:09:44;;;;;;;416.10;39.45;;;;;;;6.80;100.00;98354.34;4472817;32;20153;-80
2022/11/15 02:12:14;;;;;;;490.27;44.92;;;;;;;6.08;100.00;98350.78;4487248;32;20101;-80
2022/11/15 02:14:43;;;;;;;362.25;38.70;;;;;;;6.01;100.00;98347.47;4487165;32;20158;-80
2022/11/15 02:17:18;;;;;;;410.87;40.50;;;;;;;5.53;100.00;98333.88;4472857;32;20092;-80
2022/11/15 02:19:54;;;;;;;450.00;41.17;;;;;;;6.11;100.00;98339.63;4473112;32;20076;-80
2022/11/15 02:22:40;;;;;;;391.25;38.58;;;;;;;5.71;100.00;98333.50;4487090;32;20085;-79
2022/11/15 02:25:16;;;;;;;267.55;35.13;;;;;;;5.70;100.00;98326.69;4473168;32;20108;-80
2022/11/15 02:28:20;;;;;;;230.23;31.75;;;;;;;6.36;100.00;98345.91;4487234;32;20370;-80
2022/11/15 02:31:03;;;;;;;380.50;39.45;;;;;;;6.84;100.00;98343.16;4486681;32;20154;-80
2022/11/15 02:33:43;;;;;;;307.55;31.80;;;;;;;6.22;100.00;98332.56;4487057;32;20105;-80
2022/11/15 02:36:30;;;;;;;380.85;35.95;;;;;;;5.95;100.00;98334.78;4460085;32;20104;-80
2022/11/15 02:38:59;;;;;;;364.53;35.80;;;;;;;6.32;100.00;98331.47;4462302;32;20104;-80
2022/11/15 02:41:44;;;;;;;171.23;28.90;;;;;;;5.84;100.00;98323.03;4472874;32;20088;-80
2022/11/15 02:44:19;;;;;;;156.82;28.12;;;;;;;6.01;100.00;98318.47;4486438;32;20088;-80
2022/11/15 02:50:01;;;;;;;159.57;28.08;;;;;;;6.38;100.00;98324.53;4474757;32;20096;-80
2022/11/15 02:52:27;;;;;;;112.65;26.05;;;;;;;6.32;100.00;98316.09;4486460;32;20514;-80
2022/11/15 02:54:58;;;;;;;;;;;;;;;7.08;100.00;98329.75;4486921;31;20118;-80
2022/11/15 02:57:45;;;;;;;135.32;26.55;;;;;;;7.41;100.00;98333.19;4486580;32;19976;-80
2022/11/15 03:00:17;;;;;;;204.65;28.90;;;;;;;7.34;100.00;98326.53;4473808;32;20149;-80
2022/11/15 03:03:08;;;;;;;87.68;23.25;;;;;;;6.94;100.00;98321.53;4474504;32;20413;-80
2022/11/15 03:06:09;;;;;;;90.40;22.65;;;;;;;6.70;100.00;98322.09;4488169;31;20519;-80
2022/11/15 03:09:03;;;;;;;55.17;20.55;;;;;;;6.44;100.00;98312.44;4474275;32;20096;-80
2022/11/15 03:11:34;;;;;;;45.50;20.08;;;;;;;6.98;100.00;98325.72;4488384;32;20133;-80
2022/11/15 03:14:26;;;;;;;48.72;20.80;;;;;;;6.95;100.00;98315.53;4488650;32;20077;-80
2022/11/15 03:17:18;;;;;;;46.72;19.80;;;;;;;7.36;100.00;98318.81;4488463;32;20084;-80
2022/11/15 03:19:47;;;;;;;45.95;19.73;;;;;;;7.47;100.00;98314.22;4473987;32;20127;-80
2022/11/15 03:22:17;;;;;;;47.53;20.73;;;;;;;6.86;100.00;98292.66;4474476;32;20089;-80
2022/11/15 03:24:45;;;;;;;44.75;20.08;;;;;;;6.45;100.00;98291.03;4474401;32;20103;-80
2022/11/15 03:27:15;;;;;;;52.08;22.23;;;;;;;6.96;100.00;98291.56;4474103;32;20115;-80
2022/11/15 03:29:52;;;;;;;47.03;20.92;;;;;;;6.52;100.00;98280.63;4488346;32;20088;-80
2022/11/15 03:32:26;;;;;;;44.70;19.77;;;;;;;7.10;100.00;98284.34;4488529;32;20099;-80
2022/11/15 03:34:59;;;;;;;41.90;19.33;;;;;;;7.47;100.00;98296.25;4474187;32;20103;-80
2022/11/15 03:37:32;;;;;;;42.38;19.17;;;;;;;7.79;100.00;98296.25;4474326;32;20425;-80
2022/11/15 03:40:00;;;;;;;42.47;20.83;;;;;;;8.23;96.80;98291.56;4473831;32;20125;-80
2022/11/15 03:42:54;;;;;;;41.55;19.95;;;;;;;7.99;98.63;98282.84;4488480;32;20084;-80
2022/11/15 03:45:32;;;;;;;39.00;18.55;;;;;;;7.93;99.59;98289.88;4488369;32;20084;-80
2022/11/15 03:48:03;;;;;;;39.58;18.80;;;;;;;8.27;96.21;98293.13;4473966;32;20553;-80
2022/11/15 03:50:30;;;;;;;44.28;20.17;;;;;;;7.50;100.00;98281.59;4474151;32;20100;-80
2022/11/15 03:52:57;;;;;;;42.95;19.67;;;;;;;6.63;100.00;98270.13;4488473;32;20430;-80
2022/11/15 03:55:24;;;;;;;41.53;17.95;;;;;;;7.13;100.00;98271.47;4473627;32;20084;-80
2022/11/15 03:57:54;;;;;;;35.05;15.52;;;;;;;7.09;100.00;98269.84;4488330;32;20439;-80
2022/11/15 04:00:21;;;;;;;38.92;15.95;;;;;;;6.19;100.00;98250.63;4461211;32;20108;-80
2022/11/15 04:02:48;;;;;;;36.17;17.05;;;;;;;5.56;100.00;98240.81;4488041;32;20141;-80
2022/11/15 04:05:15;;;;;;;41.92;18.75;;;;;;;6.00;100.00;98245.06;4488195;31;20103;-80
2022/11/15 04:07:42;;;;;;;40.60;18.23;;;;;;;6.61;100.00;98252.22;4487924;32;20114;-80
2022/11/15 04:10:10;;;;;;;39.80;17.95;;;;;;;7.23;100.00;98272.91;4489121;32;20111;-79
2022/11/15 04:12:43;;;;;;;38.72;19.00;;;;;;;7.50;100.00;98273.91;4489631;32;20099;-79
2022/11/15 04:15:11;;;;;;;37.50;17.58;;;;;;;7.58;100.00;98278.84;4489465;31;20077;-80
2022/11/15 04:17:40;;;;;;;35.80;16.75;;;;;;;7.97;100.00;98268.31;4475489;32;20101;-80
2022/11/15 04:25:44;;;;;;;37.60;17.62;;;;;;;7.65;100.00;98267.50;4489484;31;20370;-80
2022/11/15 04:28:11;;;;;;;40.47;18.15;;;;;;;7.54;100.00;98267.78;4475615;32;20761;-80
2022/11/15 04:30:38;;;;;;;42.80;18.00;;;;;;;7.01;100.00;98261.50;4488728;32;20108;-80
2022/11/15 04:33:05;;;;;;;43.03;18.27;;;;;;;7.19;100.00;98253.34;4489386;32;20144;-80
2022/11/15 04:35:32;;;;;;;40.08;18.27;;;;;;;7.24;100.00;98245.53;4488678;31;20429;-79
2022/11/15 04:38:00;;;;;;;37.65;17.80;;;;;;;7.23;100.00;98243.81;4488754;32;20156;-80
2022/11/15 04:40:26;;;;;;;41.85;18.73;;;;;;;7.10;100.00;98247.59;4488930;32;20093;-80
2022/11/15 04:42:53;;;;;;;41.53;19.12;;;;;;;7.49;100.00;98235.44;4488469;32;20620;-80
2022/11/15 04:45:28;;;;;;;41.40;18.58;;;;;;;7.56;100.00;98233.56;4488762;31;20106;-80
2022/11/15 04:47:55;;;;;;;;;;;;;;;7.50;100.00;98239.69;4488792;32;20088;-80
2022/11/15 04:50:22;;;;;;;43.25;18.85;;;;;;;7.47;100.00;98239.78;4488301;32;19980;-80
2022/11/15 04:52:53;;;;;;;39.85;18.80;;;;;;;7.15;100.00;98240.63;4488798;32;20118;-80
2022/11/15 04:55:21;;;;;;;42.30;18.77;;;;;;;6.96;100.00;98242.81;4474309;32;20076;-80
2022/11/15 04:57:47;;;;;;;41.65;18.62;;;;;;;6.89;100.00;98237.00;4488032;32;20103;-80
2022/11/15 05:00:16;;;;;;;45.95;19.42;;;;;;;6.97;100.00;98237.66;4488121;32;20092;-80
2022/11/15 05:05:28;;;;;;;44.90;19.70;;;;;;;7.27;100.00;98236.91;4488271;31;20083;-80
2022/11/15 05:07:55;;;;;;;42.65;19.20;;;;;;;7.24;100.00;98238.69;4488085;32;20089;-80
2022/11/15 05:10:22;;;;;;;48.60;20.40;;;;;;;7.39;100.00;98239.97;4488284;32;20153;-80
2022/11/15 05:12:49;;;;;;;49.42;20.90;;;;;;;7.42;100.00;98244.19;4487916;32;20426;-80
2022/11/15 05:15:16;;;;;;;50.10;20.58;;;;;;;7.37;100.00;98236.62;4488323;32;20071;-80
2022/11/15 05:17:43;;;;;;;51.25;20.77;;;;;;;6.97;100.00;98226.53;4488317;32;20085;-79
2022/11/15 05:20:10;;;;;;;54.45;21.40;;;;;;;6.78;100.00;98236.41;4488179;32;20052;-80
2022/11/15 05:22:38;;;;;;;52.33;20.20;;;;;;;6.95;100.00;98231.72;4488412;32;20099;-80
2022/11/15 05:25:05;;;;;;;50.85;21.35;;;;;;;7.30;100.00;98235.09;4488091;31;20555;-80
2022/11/15 05:27:33;;;;;;;52.67;23.23;;;;;;;7.03;100.00;98241.78;4488290;32;20096;-80
2022/11/15 05:30:00;;;;;;;52.58;21.58;;;;;;;6.84;100.00;98235.44;4488349;32;20114;-80
2022/11/15 05:32:28;;;;;;;55.38;22.45;;;;;;;6.71;100.00;98228.94;4487945;32;20103;-80
2022/11/15 05:34:55;;;;;;;51.95;23.23;;;;;;;6.82;100.00;98232.06;4473928;32;20366;-80
2022/11/15 05:37:22;;;;;;;58.17;22.67;;;;;;;6.51;100.00;98219.16;4487865;32;20134;-80
2022/11/15 05:39:50;;;;;;;61.90;23.08;;;;;;;6.29;100.00;98216.25;4487579;32;20181;-80
2022/11/15 05:42:17;;;;;;;64.22;25.30;;;;;;;6.12;100.00;98208.09;4488374;32;20088;-80
2022/11/15 05:44:47;;;;;;;71.32;25.23;;;;;;;6.19;100.00;98218.16;4488177;31;20072;-80
2022/11/15 05:47:23;;;;;;;76.30;26.25;;;;;;;7.40;100.00;98226.25;4473703;32;20153;-80
2022/11/15 05:49:51;;;;;;;76.32;25.77;;;;;;;7.36;100.00;98219.53;4488015;32;20519;-80
2022/11/15 05:52:28;;;;;;;140.82;26.40;;;;;;;7.48;100.00;98226.91;4488307;32;20057;-80
2022/11/15 05:54:55;;;;;;;84.20;22.23;;;;;;;6.85;100.00;98237.12;4487784;31;20429;-80
2022/11/15 05:57:22;;;;;;;75.57;24.65;;;;;;;6.26;100.00;98216.28;4473862;32;20522;-80
2022/11/15 05:59:49;;;;;;;72.68;24.23;;;;;;;6.33;100.00;98226.38;4473230;32;20100;-79
2022/11/15 06:02:16;;;;;;;63.92;23.90;;;;;;;6.08;100.00;98226.09;4487794;32;20092;-80
2022/11/15 06:04:43;;;;;;;58.13;23.80;;;;;;;6.63;100.00;98229.09;4487761;31;20238;-80
2022/11/15 06:07:10;;;;;;;66.65;24.20;;;;;;;6.65;100.00;98233.31;4487384;32;20247;-80
2022/11/15 06:09:37;;;;;;;59.75;24.65;;;;;;;6.66;100.00;98223.91;4487724;32;20450;-80
2022/11/15 06:12:04;;;;;;;;;;;;;;;6.52;100.00;98220.84;4487914;32;20084;-80
2022/11/15 06:14:31;;;;;;;51.17;21.45;;;;;;;6.52;100.00;98223.41;4487124;32;20257;-80
2022/11/15 06:16:58;;;;;;;61.45;20.98;;;;;;;6.81;100.00;98215.84;4487494;32;20089;-80
2022/11/15 06:19:24;;;;;;;;;;;;;;;6.91;100.00;98221.56;4487839;32;20088;-81
2022/11/15 06:21:51;;;;;;;55.63;22.50;;;;;;;7.04;100.00;98228.09;4487733;32;19972;-80
2022/11/15 06:24:18;;;;;;;56.15;22.20;;;;;;;7.09;100.00;98233.09;4487755;31;20491;-80
2022/11/15 06:26:45;;;;;;;;;;;;;;;6.51;100.00;98231.97;4488097;32;20096;-80
2022/11/15 06:29:12;;;;;;;48.45;19.25;;;;;;;6.43;100.00;98223.59;4487038;32;20294;-80
2022/11/15 06:31:39;;;;;;;60.55;21.02;;;;;;;5.96;100.00;98225.53;4487400;32;20161;-80
2022/11/15 06:34:05;;;;;;;;;;;;;;;6.16;100.00;98223.34;4486895;32;20107;-79
2022/11/15 06:36:35;;;;;;;99.90;23.55;;;;;;;5.64;100.00;98215.91;4486701;31;19986;-79
2022/11/15 06:39:05;;;;;;;151.40;25.90;;;;;;;5.77;100.00;98219.91;4486995;32;20161;-80
2022/11/15 06:41:35;;;;;;;110.90;26.02;;;;;;;5.89;100.00;98227.31;4487000;32;20084;-79
2022/11/15 06:44:02;;;;;;;66.28;23.87;;;;;;;6.02;100.00;98236.47;4486512;32;20431;-79
2022/11/15 06:46:29;;;;;;;73.32;24.50;;;;;;;6.58;100.00;98242.00;4486733;32;20100;-80
2022/11/15 06:48:56;;;;;;;84.97;23.60;;;;;;;6.77;100.00;98249.28;4486404;32;20447;-80
2022/11/15 06:51:23;;;;;;;92.65;26.05;;;;;;;6.94;100.00;98247.16;4486611;32;20076;-80
2022/11/15 06:53:50;;;;;;;74.82;25.00;;;;;;;7.29;100.00;98248.81;4489575;32;20100;-80
2022/11/15 06:56:16;;;;;;;;;;;;;;;7.06;100.00;98246.84;4493092;31;20075;-79
2022/11/15 06:58:44;;;;;;;72.18;24.90;;;;;;;7.42;100.00;98251.88;4493549;32;20047;-79
2022/11/15 07:01:12;;;;;;;56.53;20.88;;;;;;;6.99;100.00;98249.59;4498047;32;20053;-83
2022/11/15 07:03:41;;;;;;;55.90;20.95;;;;;;;7.56;100.00;98246.41;4496820;32;20056;-81
2022/11/15 07:06:09;;;;;;;64.62;23.87;;;;;;;7.65;100.00;98240.97;4498702;32;20652;-80
2022/11/15 07:08:36;;;;;;;67.18;22.27;;;;;;;7.32;100.00;98246.16;4482669;32;20077;-81
2022/11/15 07:11:06;;;;;;;54.60;22.42;;;;;;;7.40;100.00;98241.66;4478990;32;20076;-80
2022/11/15 07:13:34;;;;;;;59.17;22.20;;;;;;;7.26;100.00;98246.31;4483159;32;20065;-80
2022/11/15 07:16:03;;;;;;;54.88;22.75;;;;;;;7.68;100.00;98246.91;4479558;32;20120;-81
2022/11/15 07:18:30;;;;;;;56.22;23.17;;;;;;;7.93;100.00;98235.91;4477918;32;20752;-81
2022/11/15 07:21:01;;;;;;;53.03;21.98;;;;;;;7.65;100.00;98240.97;4480463;32;20088;-81
2022/11/15 07:23:28;;;;;;;76.70;24.05;;;;;;;7.14;100.00;98244.94;4478347;32;20137;-80
2022/11/15 07:25:59;;;;;;;174.73;27.92;;;;;;;7.13;100.00;98245.81;4480488;32;20153;-81
2022/11/15 07:28:26;;;;;;;151.18;25.25;;;;;;;7.46;100.00;98240.66;4479824;32;20092;-82
2022/11/15 07:30:54;;;;;;;162.55;27.95;;;;;;;7.21;100.00;98232.75;4477703;32;20132;-81
2022/11/15 07:33:21;;;;;;;128.90;27.05;;;;;;;7.00;100.00;98239.28;4481407;32;20057;-82
2022/11/15 07:35:48;;;;;;;168.13;27.50;;;;;;;7.34;100.00;98231.56;4481436;32;20076;-82
2022/11/15 07:38:15;;;;;;;120.40;26.05;;;;;;;7.51;100.00;98221.66;4482557;32;20114;-80
2022/11/15 07:40:47;;;;;;;133.40;26.87;;;;;;;7.32;100.00;98229.91;4484358;32;20102;-80
2022/11/15 07:43:14;;;;;;;194.98;29.10;;;;;;;7.14;100.00;98221.00;4476545;32;20053;-84
2022/11/15 07:45:43;;;;;;;108.28;24.40;;;;;;;6.95;100.00;98215.47;4473978;32;20141;-84
2022/11/15 07:48:10;;;;;;;78.85;23.12;;;;;;;6.70;100.00;98211.84;4479158;32;20149;-85
2022/11/15 07:50:41;;;;;;;75.87;25.08;;;;;;;6.18;100.00;98207.97;4477497;32;20069;-83
2022/11/15 07:53:10;;;;;;;68.82;26.15;;;;;;;6.23;100.00;98208.69;4479727;32;20053;-82
2022/11/15 07:55:39;;;;;;;72.50;23.70;;;;;;;6.20;100.00;98203.63;4477513;32;20144;-83
2022/11/15 07:58:08;;;;;;;74.60;24.05;;;;;;;6.01;100.00;98196.34;4475990;32;20084;-83
2022/11/15 08:00:35;;;;;;;73.20;25.20;;;;;;;6.29;100.00;98196.59;4477198;32;20061;-82
2022/11/15 08:03:03;;;;;;;130.35;29.00;;;;;;;6.43;100.00;98185.16;4475033;32;20049;-82
2022/11/15 08:05:31;;;;;;;63.53;22.62;;;;;;;6.26;100.00;98181.25;4475012;32;20084;-83
2022/11/15 08:07:58;;;;;;;71.00;25.17;;;;;;;6.26;100.00;98182.97;4480503;32;20104;-83
2022/11/15 08:10:26;;;;;;;62.50;25.85;;;;;;;6.33;100.00;98174.28;4492094;32;20064;-82
2022/11/15 08:13:00;;;;;;;64.57;24.05;;;;;;;6.41;100.00;98181.78;4489361;32;20057;-84
2022/11/15 08:15:28;;;;;;;54.63;23.00;;;;;;;7.18;100.00;98189.22;4488569;31;20088;-82
2022/11/15 08:17:58;;;;;;;60.47;23.73;;;;;;;6.52;100.00;98179.81;4488963;32;20103;-82
2022/11/15 08:20:29;;;;;;;58.97;24.98;;;;;;;6.53;100.00;98179.78;4489695;32;20100;-83
2022/11/15 08:22:57;;;;;;;65.03;25.62;;;;;;;6.66;100.00;98170.88;4490080;32;20075;-82
2022/11/15 08:25:28;;;;;;;61.65;24.95;;;;;;;6.77;100.00;98168.06;4476705;32;20111;-81
2022/11/15 08:27:58;;;;;;;63.60;24.42;;;;;;;6.91;100.00;98175.38;4490284;32;20133;-82
2022/11/15 08:30:26;;;;;;;56.47;24.92;;;;;;;7.08;100.00;98170.66;4487946;32;20088;-81
2022/11/15 08:32:53;;;;;;;61.42;25.40;;;;;;;7.12;100.00;98181.69;4489026;32;20072;-81
2022/11/15 08:35:20;;;;;;;60.97;25.88;;;;;;;7.82;100.00;98185.69;4493964;31;20104;-82
2022/11/15 08:37:54;;;;;;;63.92;24.77;;;;;;;7.72;100.00;98180.84;4490498;32;20088;-81
2022/11/15 08:40:22;;;;;;;58.60;24.23;;;;;;;7.56;100.00;98177.06;4491467;32;20149;-83
2022/11/15 08:42:49;;;;;;;58.28;24.20;;;;;;;7.82;100.00;98180.53;4490955;32;20048;-82
2022/11/15 08:45:16;;;;;;;63.20;25.92;;;;;;;7.38;100.00;98168.16;4490314;31;20113;-81
2022/11/15 08:47:43;;;;;;;;;;;;;;;8.01;100.00;98164.59;4489472;32;20088;-83
2022/11/15 08:50:16;;;;;;;55.88;24.55;;;;;;;8.32;100.00;98174.75;4488896;32;19972;-82
2022/11/15 08:52:43;;;;;;;50.67;21.98;;;;;;;8.57;100.00;98160.25;4487685;32;20220;-83
2022/11/15 08:55:10;;;;;;;53.80;23.40;;;;;;;8.08;100.00;98153.22;4487349;32;20123;-81
2022/11/15 08:57:37;;;;;;;;;;;;;;;7.59;100.00;98152.12;4487778;32;20111;-82
2022/11/15 09:00:06;;;;;;;55.22;21.87;;;;;;;7.45;100.00;98162.81;4493363;32;19982;-82
2022/11/15 09:02:33;;;;;;;60.47;25.45;;;;;;;8.07;100.00;98156.66;4491604;32;20057;-82
2022/11/15 09:05:00;;;;;;;54.47;24.60;;;;;;;7.43;100.00;98150.88;4494400;31;20157;-81
2022/11/15 09:07:29;;;;;;;49.75;21.50;;;;;;;7.86;100.00;98153.03;4492742;32;20069;-81
2022/11/15 09:09:56;;;;;;;61.28;25.37;;;;;;;7.54;100.00;98149.69;4487987;32;20160;-80
2022/11/15 09:12:24;;;;;;;60.65;24.23;;;;;;;7.58;100.00;98142.75;4490850;32;20110;-80
2022/11/15 09:14:51;;;;;;;58.60;24.33;;;;;;;7.64;100.00;98145.12;4494590;31;20096;-81
2022/11/15 09:17:18;;;;;;;54.85;22.92;;;;;;;7.93;100.00;98158.84;4494896;32;20052;-81
2022/11/15 09:19:51;;;;;;;50.70;23.40;;;;;;;8.19;100.00;98169.16;4500715;31;20863;-82
2022/11/15 09:22:18;;;;;;;54.35;22.23;;;;;;;8.67;100.00;98166.75;4500891;32;20071;-82
2022/11/15 09:24:45;;;;;;;64.05;25.92;;;;;;;7.98;100.00;98167.25;4495575;31;20084;-82
2022/11/15 09:27:13;;;;;;;58.70;24.87;;;;;;;8.24;100.00;98151.03;4502285;31;20105;-81
2022/11/15 09:29:39;;;;;;;55.17;24.73;;;;;;;8.11;100.00;98140.28;4500828;32;20105;-82
2022/11/15 09:32:07;;;;;;;58.08;25.08;;;;;;;7.70;100.00;98137.25;4487439;32;20084;-83
2022/11/15 09:34:33;;;;;;;56.33;24.40;;;;;;;7.86;100.00;98135.03;4488136;31;20554;-82
2022/11/15 09:37:00;;;;;;;;;;;;;;;8.40;100.00;98142.81;4489245;32;20418;-82
2022/11/15 09:39:27;;;;;;;58.40;24.50;;;;;;;8.67;100.00;98146.19;4490238;32;19958;-80
2022/11/15 09:42:26;;;;;;;57.28;25.12;;;;;;;9.53;100.00;98149.16;4491699;32;20052;-81
2022/11/15 09:44:52;;;;;;;53.42;23.77;;;;;;;9.38;100.00;98152.31;4473217;32;20406;-83
2022/11/15 09:47:34;;;;;;;;;;;;;;;9.65;98.34;98159.91;4489788;32;20092;-82
2022/11/15 09:50:09;;;;;;;52.92;22.25;;;;;;;9.91;96.47;98153.78;4487298;32;19971;-80
2022/11/15 09:52:37;;;;;;;54.25;23.27;;;;;;;9.93;96.38;98157.97;4487333;32;20137;-80
2022/11/15 09:55:05;;;;;;;54.13;24.02;;;;;;;9.69;97.97;98143.44;4489544;31;20084;-80
2022/11/15 09:57:54;;;;;;;49.30;21.67;;;;;;;8.60;100.00;98138.72;4488712;32;20097;-80
2022/11/15 10:00:31;;;;;;;53.38;22.50;;;;;;;8.88;100.00;98139.47;4489156;32;20083;-80
2022/11/15 10:03:21;;;;;;;51.97;22.92;;;;;;;8.67;100.00;98135.06;4487950;32;20176;-80
2022/11/15 10:05:49;;;;;;;80.38;26.50;;;;;;;8.71;100.00;98123.75;4500397;31;20118;-80
2022/11/15 10:08:36;;;;;;;49.50;21.58;;;;;;;9.33;100.00;98127.59;4491271;32;20136;-79
2022/11/15 10:11:09;;;;;;;55.40;24.70;;;;;;;9.36;100.00;98122.34;4499680;32;20093;-80
2022/11/15 10:14:02;;;;;;;57.13;25.45;;;;;;;9.70;100.00;98127.09;4481475;32;20366;-81
2022/11/15 10:16:54;;;;;;;75.28;25.88;;;;;;;9.38;100.00;98121.41;4479904;32;20081;-80
2022/11/15 10:19:28;;;;;;;48.10;21.05;;;;;;;9.77;100.00;98113.91;4501100;32;20057;-81
2022/11/15 10:22:20;;;;;;;47.22;22.33;;;;;;;10.20;100.00;98107.06;4493562;32;20080;-81
2022/11/15 10:24:47;;;;;;;44.72;20.62;;;;;;;9.52;100.00;98100.28;4490280;32;20056;-81
2022/11/15 10:27:17;;;;;;;48.65;22.67;;;;;;;10.17;99.37;98102.03;4468550;32;236403;-81
2022/11/15 10:29:47;;;;;;;45.63;21.92;;;;;;;10.26;97.70;98090.53;4489694;32;20061;-81
2022/11/15 10:32:17;;;;;;;48.75;24.05;;;;;;;9.86;99.27;98102.41;4494170;32;20056;-81
2022/11/15 10:34:45;;;;;;;48.90;23.48;;;;;;;10.27;96.85;98102.53;4492109;32;20655;-81
2022/11/15 10:37:12;;;;;;;45.08;20.40;;;;;;;10.28;96.82;98104.22;4474906;32;20157;-80
2022/11/15 10:39:40;;;;;;;46.92;22.33;;;;;;;10.92;93.10;98102.34;4492302;32;20073;-81
2022/11/15 10:42:28;;;;;;;44.90;21.60;;;;;;;10.56;95.51;98103.94;4500421;32;20060;-81
2022/11/15 10:44:55;;;;;;;46.00;21.35;;;;;;;10.77;94.04;98099.59;4483295;32;20532;-82
2022/11/15 10:47:23;;;;;;;;;;;;;;;10.72;94.70;98092.88;4491257;32;20096;-82
2022/11/15 10:49:57;;;;;;;54.35;25.37;;;;;;;10.01;99.13;98091.50;4490802;32;19976;-82
2022/11/15 10:52:25;;;;;;;46.22;21.80;;;;;;;10.45;97.60;98080.31;4494147;32;20057;-83
2022/11/15 10:55:00;;;;;;;48.17;23.10;;;;;;;10.94;95.15;98068.72;4488263;32;20052;-82
2022/11/15 10:57:31;;;;;;;48.90;22.45;;;;;;;10.81;95.74;98063.25;4490043;32;20096;-82
2022/11/15 11:00:21;;;;;;;53.72;23.38;;;;;;;10.74;96.33;98072.19;4498688;31;20065;-81
2022/11/15 11:03:30;;;;;;;60.88;21.70;;;;;;;10.79;95.90;98059.06;4499754;32;20090;-80
2022/11/15 11:06:05;;;;;;;67.40;26.73;;;;;;;11.01;94.87;98049.47;4501141;31;20064;-80
2022/11/15 11:08:37;;;;;;;70.20;25.12;;;;;;;10.51;96.92;98042.19;4500871;31;20113;-79
2022/11/15 11:11:05;;;;;;;163.07;34.03;;;;;;;10.26;99.31;98041.53;4474981;32;20088;-81
2022/11/15 11:13:36;;;;;;;58.28;23.55;;;;;;;9.90;100.00;98041.28;4501010;32;20053;-80
2022/11/15 11:16:19;;;;;;;50.22;23.25;;;;;;;9.91;100.00;98030.06;4500665;31;20064;-81
2022/11/15 11:22:38;;;;;;;52.03;22.92;;;;;;;9.60;100.00;98017.56;4830425;26;20088;-79
2022/11/15 11:28:41;;;;;;;52.35;23.45;;;;;;;9.59;100.00;98013.31;4699678;27;20081;-80
2022/11/15 11:31:27;;;;;;;51.08;21.20;;;;;;;9.88;100.00;98009.56;4440428;32;20074;-80
2022/11/15 11:33:57;;;;;;;51.50;22.40;;;;;;;9.72;100.00;98025.66;4441038;32;20074;-81
2022/11/15 11:36:49;;;;;;;52.10;22.17;;;;;;;10.16;100.00;98015.28;4440959;32;20102;-82
2022/11/15 11:39:37;;;;;;;50.38;21.48;;;;;;;10.30;99.67;98006.97;4440289;32;20112;-82
2022/11/15 11:42:21;;;;;;;50.08;23.08;;;;;;;9.85;100.00;98006.22;4440516;32;20136;-82
2022/11/15 11:45:16;;;;;;;53.42;23.85;;;;;;;10.39;98.40;98006.59;4440224;32;20074;-80
2022/11/15 11:47:48;;;;;;;52.58;23.23;;;;;;;10.11;100.00;98002.59;4440677;32;20120;-82
2022/11/15 11:50:24;;;;;;;49.55;21.62;;;;;;;10.29;100.00;97993.25;4440623;32;20178;-82
2022/11/15 11:52:56;;;;;;;47.78;21.75;;;;;;;10.41;98.74;97997.03;4440506;32;20119;-81
2022/11/15 11:55:37;;;;;;;49.67;21.00;;;;;;;10.59;97.25;97985.94;4440339;32;20074;-82